Woodhaven, Michigan
Current Conditions -  °F | °C
As of 8:14 AM on Thursday 23 Oct 2014 (Local Time) from KONZ Reporting Station
Clear Clear  
Wind Chill: 37°   Ceiling: Unl
Heat Index: 37°   Visibility: 10mi
Dew Point: 36°   Wind: 3mph
Humidity: 93%   Direction: 350°N
Pressure: 30.22"   Gusts: NA
Location:  42.14°N, 83.24°W
Report Text: KONZ 231214Z AUTO 35003KT 10SM CLR 03/02 A3022 RMK AO2
Loading
Personal Weather Stations






























Interactive Weather Map New forecast layout! Learn more

10-Day Weather Forecast

Advertisements
Track Severe Weather on mobile